sensor_id;sensor_type;location;lat;lon;timestamp;pressure;altitude;pressure_sealevel;temperature;humidity
70407;BME280;57821;52.202;0.154;2023-08-01T00:00:04;99977.81;;;16.40;81.74
70407;BME280;57821;52.202;0.154;2023-08-01T00:02:37;99982.25;;;16.38;81.94
70407;BME280;57821;52.202;0.154;2023-08-01T00:05:04;99970.06;;;16.37;81.85
70407;BME280;57821;52.202;0.154;2023-08-01T00:07:31;99971.84;;;16.37;81.79
70407;BME280;57821;52.202;0.154;2023-08-01T00:10:01;99973.63;;;16.36;82.03
70407;BME280;57821;52.202;0.154;2023-08-01T00:12:28;99970.16;;;16.36;81.92
70407;BME280;57821;52.202;0.154;2023-08-01T00:14:54;99966.69;;;16.35;82.04
70407;BME280;57821;52.202;0.154;2023-08-01T00:17:21;99961.44;;;16.35;82.49
70407;BME280;57821;52.202;0.154;2023-08-01T00:19:47;99963.25;;;16.33;81.77
70407;BME280;57821;52.202;0.154;2023-08-01T00:22:14;99963.25;;;16.33;82.03
70407;BME280;57821;52.202;0.154;2023-08-01T00:24:40;99955.56;;;16.30;81.72
70407;BME280;57821;52.202;0.154;2023-08-01T00:27:07;99956.47;;;16.29;81.89
70407;BME280;57821;52.202;0.154;2023-08-01T00:29:34;99963.50;;;16.27;81.81
70407;BME280;57821;52.202;0.154;2023-08-01T00:32:00;99966.16;;;16.26;82.04
70407;BME280;57821;52.202;0.154;2023-08-01T00:34:27;99956.75;;;16.22;81.92
70407;BME280;57821;52.202;0.154;2023-08-01T00:36:53;99957.72;;;16.19;82.23
70407;BME280;57821;52.202;0.154;2023-08-01T00:39:20;99965.69;;;16.16;82.02
70407;BME280;57821;52.202;0.154;2023-08-01T00:41:47;99962.28;;;16.14;82.02
70407;BME280;57821;52.202;0.154;2023-08-01T00:44:13;99960.66;;;16.12;81.68
70407;BME280;57821;52.202;0.154;2023-08-01T00:46:40;99958.09;;;16.10;81.88
70407;BME280;57821;52.202;0.154;2023-08-01T00:49:07;99958.13;;;16.09;81.85
70407;BME280;57821;52.202;0.154;2023-08-01T00:51:33;99954.78;;;16.05;82.47
70407;BME280;57821;52.202;0.154;2023-08-01T00:54:00;99956.56;;;16.05;82.42
70407;BME280;57821;52.202;0.154;2023-08-01T00:56:27;99957.50;;;16.02;82.04
70407;BME280;57821;52.202;0.154;2023-08-01T00:58:54;99966.28;;;16.01;82.11
70407;BME280;57821;52.202;0.154;2023-08-01T01:01:20;99957.66;;;15.99;82.62
70407;BME280;57821;52.202;0.154;2023-08-01T01:03:48;99956.94;;;15.95;82.53
70407;BME280;57821;52.202;0.154;2023-08-01T01:08:48;99965.06;;;15.88;82.79
70407;BME280;57821;52.202;0.154;2023-08-01T01:11:14;99966.84;;;15.86;82.65
70407;BME280;57821;52.202;0.154;2023-08-01T01:13:41;99976.59;;;15.82;82.62
70407;BME280;57821;52.202;0.154;2023-08-01T01:16:08;99965.31;;;15.80;82.54
70407;BME280;57821;52.202;0.154;2023-08-01T01:18:34;99974.16;;;15.78;82.99
70407;BME280;57821;52.202;0.154;2023-08-01T01:21:01;99970.72;;;15.76;82.80
70407;BME280;57821;52.202;0.154;2023-08-01T01:23:28;99966.47;;;15.73;82.89
70407;BME280;57821;52.202;0.154;2023-08-01T01:25:57;99972.66;;;15.71;82.94
70407;BME280;57821;52.202;0.154;2023-08-01T01:28:24;99970.06;;;15.71;82.85
70407;BME280;57821;52.202;0.154;2023-08-01T01:30:52;99975.34;;;15.69;82.59
70407;BME280;57821;52.202;0.154;2023-08-01T01:33:19;99981.53;;;15.67;82.58
70407;BME280;57821;52.202;0.154;2023-08-01T01:35:47;99979.81;;;15.66;82.81
70407;BME280;57821;52.202;0.154;2023-08-01T01:38:13;99977.25;;;15.64;83.06
70407;BME280;57821;52.202;0.154;2023-08-01T01:40:40;99984.28;;;15.62;82.96
70407;BME280;57821;52.202;0.154;2023-08-01T01:43:07;99983.44;;;15.61;82.79
70407;BME280;57821;52.202;0.154;2023-08-01T01:45:34;99978.22;;;15.61;82.97
70407;BME280;57821;52.202;0.154;2023-08-01T01:48:00;99973.97;;;15.59;83.01
70407;BME280;57821;52.202;0.154;2023-08-01T01:50:27;99979.25;;;15.57;83.11
70407;BME280;57821;52.202;0.154;2023-08-01T01:52:54;99976.69;;;15.56;82.92
70407;BME280;57821;52.202;0.154;2023-08-01T01:55:20;99976.75;;;15.54;83.29
70407;BME280;57821;52.202;0.154;2023-08-01T01:57:47;99976.81;;;15.53;83.13
70407;BME280;57821;52.202;0.154;2023-08-01T02:00:15;99974.19;;;15.53;83.65
70407;BME280;57821;52.202;0.154;2023-08-01T02:02:41;99981.19;;;15.52;83.32
70407;BME280;57821;52.202;0.154;2023-08-01T02:05:08;99976.81;;;15.51;83.29
70407;BME280;57821;52.202;0.154;2023-08-01T02:07:35;99982.03;;;15.51;83.43
70407;BME280;57821;52.202;0.154;2023-08-01T02:10:01;99976.81;;;15.51;83.69
70407;BME280;57821;52.202;0.154;2023-08-01T02:12:31;99978.56;;;15.52;83.82
70407;BME280;57821;52.202;0.154;2023-08-01T02:14:58;99968.09;;;15.52;83.55
70407;BME280;57821;52.202;0.154;2023-08-01T02:17:25;99976.81;;;15.51;83.51
70407;BME280;57821;52.202;0.154;2023-08-01T02:19:51;99971.59;;;15.51;83.54
70407;BME280;57821;52.202;0.154;2023-08-01T02:22:18;99974.19;;;15.53;83.60
70407;BME280;57821;52.202;0.154;2023-08-01T02:24:45;99966.38;;;15.51;83.47
70407;BME280;57821;52.202;0.154;2023-08-01T02:27:11;99968.16;;;15.49;83.56
70407;BME280;57821;52.202;0.154;2023-08-01T02:29:38;99968.16;;;15.49;83.40
70407;BME280;57821;52.202;0.154;2023-08-01T02:32:05;99966.50;;;15.48;83.36
70407;BME280;57821;52.202;0.154;2023-08-01T02:34:31;99966.50;;;15.48;83.66
70407;BME280;57821;52.202;0.154;2023-08-01T02:36:58;99972.56;;;15.49;83.63
70407;BME280;57821;52.202;0.154;2023-08-01T02:39:25;99966.50;;;15.48;83.58
70407;BME280;57821;52.202;0.154;2023-08-01T02:41:51;99964.78;;;15.47;83.49
70407;BME280;57821;52.202;0.154;2023-08-01T02:44:18;99959.66;;;15.44;83.27
70407;BME280;57821;52.202;0.154;2023-08-01T02:46:44;99969.31;;;15.42;83.26
70407;BME280;57821;52.202;0.154;2023-08-01T02:49:11;99968.50;;;15.40;83.43
70407;BME280;57821;52.202;0.154;2023-08-01T02:51:38;99965.06;;;15.40;83.62
70407;BME280;57821;52.202;0.154;2023-08-01T02:54:04;99962.56;;;15.37;83.74
70407;BME280;57821;52.202;0.154;2023-08-01T02:56:31;99971.31;;;15.36;83.83
70407;BME280;57821;52.202;0.154;2023-08-01T02:58:57;99967.88;;;15.34;83.68
70407;BME280;57821;52.202;0.154;2023-08-01T03:01:24;99972.25;;;15.33;83.90
70407;BME280;57821;52.202;0.154;2023-08-01T03:03:51;99973.16;;;15.32;83.85
70407;BME280;57821;52.202;0.154;2023-08-01T03:06:17;99972.38;;;15.30;83.94
70407;BME280;57821;52.202;0.154;2023-08-01T03:08:45;99966.28;;;15.30;83.81
70407;BME280;57821;52.202;0.154;2023-08-01T03:11:11;99964.59;;;15.29;84.06
70407;BME280;57821;52.202;0.154;2023-08-01T03:13:38;99962.00;;;15.27;83.69
70407;BME280;57821;52.202;0.154;2023-08-01T03:16:04;99968.94;;;15.28;84.08
70407;BME280;57821;52.202;0.154;2023-08-01T03:18:31;99962.88;;;15.28;83.92
70407;BME280;57821;52.202;0.154;2023-08-01T03:20:59;99975.16;;;15.26;84.01
70407;BME280;57821;52.202;0.154;2023-08-01T03:23:26;99965.53;;;15.26;83.90
70407;BME280;57821;52.202;0.154;2023-08-01T03:25:52;99966.47;;;15.25;84.11
70407;BME280;57821;52.202;0.154;2023-08-01T03:28:19;99963.00;;;15.25;84.04
70407;BME280;57821;52.202;0.154;2023-08-01T03:30:46;99964.75;;;15.24;84.46
70407;BME280;57821;52.202;0.154;2023-08-01T03:33:12;99962.13;;;15.24;84.09
70407;BME280;57821;52.202;0.154;2023-08-01T03:35:39;99964.75;;;15.24;84.35
70407;BME280;57821;52.202;0.154;2023-08-01T03:38:05;99965.66;;;15.23;83.99
70407;BME280;57821;52.202;0.154;2023-08-01T03:40:32;99969.16;;;15.22;84.27
70407;BME280;57821;52.202;0.154;2023-08-01T03:42:59;99966.56;;;15.22;84.37
70407;BME280;57821;52.202;0.154;2023-08-01T03:45:25;99963.94;;;15.22;84.29
70407;BME280;57821;52.202;0.154;2023-08-01T03:47:52;99959.69;;;15.19;84.02
70407;BME280;57821;52.202;0.154;2023-08-01T03:50:19;99968.34;;;15.20;83.89
70407;BME280;57821;52.202;0.154;2023-08-01T03:52:48;99971.03;;;15.18;84.11
70407;BME280;57821;52.202;0.154;2023-08-01T03:55:15;99980.63;;;15.18;84.25
70407;BME280;57821;52.202;0.154;2023-08-01T03:57:41;99981.53;;;15.17;84.24
70407;BME280;57821;52.202;0.154;2023-08-01T04:00:09;99975.50;;;15.15;84.52
70407;BME280;57821;52.202;0.154;2023-08-01T04:02:37;99966.81;;;15.14;84.28
70407;BME280;57821;52.202;0.154;2023-08-01T04:05:04;99977.25;;;15.14;84.25
70407;BME280;57821;52.202;0.154;2023-08-01T04:07:31;99976.44;;;15.14;84.21
70407;BME280;57821;52.202;0.154;2023-08-01T04:09:57;99979.94;;;15.13;84.20
70407;BME280;57821;52.202;0.154;2023-08-01T04:12:24;99984.31;;;15.12;84.54
70407;BME280;57821;52.202;0.154;2023-08-01T04:14:50;99989.53;;;15.12;84.24
70407;BME280;57821;52.202;0.154;2023-08-01T04:17:17;99980.00;;;15.11;83.98
70407;BME280;57821;52.202;0.154;2023-08-01T04:19:44;99986.97;;;15.11;84.11
70407;BME280;57821;52.202;0.154;2023-08-01T04:22:10;99980.03;;;15.10;84.38
70407;BME280;57821;52.202;0.154;2023-08-01T04:24:37;99986.97;;;15.11;83.89
70407;BME280;57821;52.202;0.154;2023-08-01T04:27:03;99980.03;;;15.10;84.52
70407;BME280;57821;52.202;0.154;2023-08-01T04:29:30;99972.19;;;15.10;84.10
70407;BME280;57821;52.202;0.154;2023-08-01T04:31:57;99979.09;;;15.12;84.11
70407;BME280;57821;52.202;0.154;2023-08-01T04:34:24;99971.25;;;15.12;84.09
70407;BME280;57821;52.202;0.154;2023-08-01T04:36:50;99970.34;;;15.13;84.01
70407;BME280;57821;52.202;0.154;2023-08-01T04:39:17;99963.38;;;15.14;84.12
70407;BME280;57821;52.202;0.154;2023-08-01T04:41:43;99965.13;;;15.13;84.31
70407;BME280;57821;52.202;0.154;2023-08-01T04:44:10;99965.97;;;15.14;84.22
70407;BME280;57821;52.202;0.154;2023-08-01T04:46:37;99969.38;;;15.16;83.84
70407;BME280;57821;52.202;0.154;2023-08-01T04:49:04;99976.31;;;15.17;83.69
70407;BME280;57821;52.202;0.154;2023-08-01T04:51:30;99975.41;;;15.18;83.82
70407;BME280;57821;52.202;0.154;2023-08-01T04:53:57;99983.25;;;15.18;83.54
70407;BME280;57821;52.202;0.154;2023-08-01T04:56:23;99981.41;;;15.20;83.80
70407;BME280;57821;52.202;0.154;2023-08-01T04:58:50;100001.31;;;15.24;83.58
70407;BME280;57821;52.202;0.154;2023-08-01T05:01:16;99995.19;;;15.25;83.42
70407;BME280;57821;52.202;0.154;2023-08-01T05:03:43;100006.41;;;15.27;83.38
70407;BME280;57821;52.202;0.154;2023-08-01T05:06:10;99999.38;;;15.29;83.27
70407;BME280;57821;52.202;0.154;2023-08-01T05:08:36;99994.13;;;15.31;83.49
70407;BME280;57821;52.202;0.154;2023-08-01T05:11:03;100011.38;;;15.35;83.16
70407;BME280;57821;52.202;0.154;2023-08-01T05:13:29;100007.75;;;15.39;83.13
70407;BME280;57821;52.202;0.154;2023-08-01T05:15:56;100007.66;;;15.42;83.03
70407;BME280;57821;52.202;0.154;2023-08-01T05:18:23;100007.47;;;15.46;82.75
70407;BME280;57821;52.202;0.154;2023-08-01T05:20:49;100009.06;;;15.52;82.97
70407;BME280;57821;52.202;0.154;2023-08-01T05:23:16;100016.69;;;15.58;83.05
70407;BME280;57821;52.202;0.154;2023-08-01T05:25:42;100008.66;;;15.63;82.81
70407;BME280;57821;52.202;0.154;2023-08-01T05:28:09;100011.91;;;15.69;82.58
70407;BME280;57821;52.202;0.154;2023-08-01T05:30:35;100005.63;;;15.75;82.54
70407;BME280;57821;52.202;0.154;2023-08-01T05:33:02;100004.50;;;15.82;81.58
70407;BME280;57821;52.202;0.154;2023-08-01T05:35:29;100015.66;;;15.85;81.97
70407;BME280;57821;52.202;0.154;2023-08-01T05:37:55;100010.28;;;15.90;81.78
70407;BME280;57821;52.202;0.154;2023-08-01T05:40:22;100021.53;;;15.92;81.58
70407;BME280;57821;52.202;0.154;2023-08-01T05:42:48;100015.41;;;15.93;81.08
70407;BME280;57821;52.202;0.154;2023-08-01T05:45:15;100016.19;;;15.95;81.24
70407;BME280;57821;52.202;0.154;2023-08-01T05:47:42;100013.50;;;15.96;80.83
70407;BME280;57821;52.202;0.154;2023-08-01T05:50:09;100015.25;;;15.96;80.63
70407;BME280;57821;52.202;0.154;2023-08-01T05:52:35;100011.75;;;15.97;80.59
70407;BME280;57821;52.202;0.154;2023-08-01T05:55:02;100013.47;;;15.98;80.40
70407;BME280;57821;52.202;0.154;2023-08-01T05:57:29;100014.25;;;16.00;80.08
70407;BME280;57821;52.202;0.154;2023-08-01T05:59:56;100021.97;;;16.03;80.00
70407;BME280;57821;52.202;0.154;2023-08-01T06:02:22;100023.59;;;16.07;79.71
70407;BME280;57821;52.202;0.154;2023-08-01T06:04:49;100019.03;;;16.12;80.40
70407;BME280;57821;52.202;0.154;2023-08-01T06:07:16;100017.88;;;16.19;79.89
70407;BME280;57821;52.202;0.154;2023-08-01T06:09:42;100032.41;;;16.26;79.14
70407;BME280;57821;52.202;0.154;2023-08-01T06:12:09;100033.09;;;16.31;78.32
70407;BME280;57821;52.202;0.154;2023-08-01T06:14:35;100034.56;;;16.38;78.62
70407;BME280;57821;52.202;0.154;2023-08-01T06:17:02;100046.59;;;16.42;78.42
70407;BME280;57821;52.202;0.154;2023-08-01T06:19:29;100039.47;;;16.48;77.66
70407;BME280;57821;52.202;0.154;2023-08-01T06:21:55;100034.00;;;16.54;77.85
70407;BME280;57821;52.202;0.154;2023-08-01T06:24:22;100051.25;;;16.58;77.63
70407;BME280;57821;52.202;0.154;2023-08-01T06:26:48;100047.63;;;16.62;77.11
70407;BME280;57821;52.202;0.154;2023-08-01T06:29:15;100048.38;;;16.65;77.29
70407;BME280;57821;52.202;0.154;2023-08-01T06:31:41;100055.25;;;16.68;76.85
70407;BME280;57821;52.202;0.154;2023-08-01T06:34:08;100059.44;;;16.72;76.51
70407;BME280;57821;52.202;0.154;2023-08-01T06:36:35;100062.00;;;16.73;76.21
70407;BME280;57821;52.202;0.154;2023-08-01T06:39:02;100055.81;;;16.76;76.53
70407;BME280;57821;52.202;0.154;2023-08-01T06:41:29;100060.81;;;16.82;75.92
70407;BME280;57821;52.202;0.154;2023-08-01T06:43:55;100054.66;;;16.83;75.78
70407;BME280;57821;52.202;0.154;2023-08-01T06:46:22;100055.38;;;16.87;75.49
70407;BME280;57821;52.202;0.154;2023-08-01T06:48:48;100062.19;;;16.91;75.31
70407;BME280;57821;52.202;0.154;2023-08-01T06:51:15;100062.97;;;16.93;75.10
70407;BME280;57821;52.202;0.154;2023-08-01T06:53:42;100062.94;;;16.94;75.37
70407;BME280;57821;52.202;0.154;2023-08-01T06:56:09;100070.69;;;16.96;75.04
70407;BME280;57821;52.202;0.154;2023-08-01T06:58:35;100070.78;;;16.94;74.73
70407;BME280;57821;52.202;0.154;2023-08-01T07:01:02;100071.75;;;16.92;74.26
70407;BME280;57821;52.202;0.154;2023-08-01T07:03:29;100076.25;;;16.88;73.89
70407;BME280;57821;52.202;0.154;2023-08-01T07:05:55;100075.41;;;16.88;74.07
70407;BME280;57821;52.202;0.154;2023-08-01T07:08:22;100072.69;;;16.89;74.25
70407;BME280;57821;52.202;0.154;2023-08-01T07:10:48;100076.97;;;16.92;74.42
70407;BME280;57821;52.202;0.154;2023-08-01T07:13:15;100078.63;;;16.94;74.30
70407;BME280;57821;52.202;0.154;2023-08-01T07:15:42;100088.06;;;16.98;73.74
70407;BME280;57821;52.202;0.154;2023-08-01T07:18:08;100074.97;;;16.98;73.57
70407;BME280;57821;52.202;0.154;2023-08-01T07:20:35;100084.41;;;17.02;73.89
70407;BME280;57821;52.202;0.154;2023-08-01T07:23:01;100077.19;;;17.07;73.23
70407;BME280;57821;52.202;0.154;2023-08-01T07:25:28;100089.28;;;17.11;73.45
70407;BME280;57821;52.202;0.154;2023-08-01T07:27:55;100077.69;;;17.17;73.66
70407;BME280;57821;52.202;0.154;2023-08-01T07:30:21;100089.53;;;17.25;73.48
70407;BME280;57821;52.202;0.154;2023-08-01T07:32:48;100093.75;;;17.30;72.95
70407;BME280;57821;52.202;0.154;2023-08-01T07:35:14;100100.56;;;17.34;72.69
70407;BME280;57821;52.202;0.154;2023-08-01T07:37:41;100081.31;;;17.35;72.34
70407;BME280;57821;52.202;0.154;2023-08-01T07:40:08;100087.31;;;17.37;72.49
70407;BME280;57821;52.202;0.154;2023-08-01T07:42:35;100082.09;;;17.37;71.88
70407;BME280;57821;52.202;0.154;2023-08-01T07:45:02;100080.13;;;17.42;71.92
70407;BME280;57821;52.202;0.154;2023-08-01T07:47:28;100086.88;;;17.47;71.70
70407;BME280;57821;52.202;0.154;2023-08-01T07:49:55;100078.84;;;17.52;72.28
70407;BME280;57821;52.202;0.154;2023-08-01T07:52:22;100096.91;;;17.58;72.29
70407;BME280;57821;52.202;0.154;2023-08-01T07:54:48;100094.94;;;17.64;71.62
70407;BME280;57821;52.202;0.154;2023-08-01T07:57:15;100091.25;;;17.69;70.70
70407;BME280;57821;52.202;0.154;2023-08-01T07:59:42;100098.91;;;17.73;71.02
70407;BME280;57821;52.202;0.154;2023-08-01T08:02:08;100093.41;;;17.79;71.33
70407;BME280;57821;52.202;0.154;2023-08-01T08:04:35;100080.88;;;17.86;70.99
70407;BME280;57821;52.202;0.154;2023-08-01T08:07:02;100094.56;;;17.92;70.16
70407;BME280;57821;52.202;0.154;2023-08-01T08:09:28;100089.06;;;17.98;69.84
70407;BME280;57821;52.202;0.154;2023-08-01T08:11:55;100094.88;;;18.05;69.18
70407;BME280;57821;52.202;0.154;2023-08-01T08:14:21;100089.53;;;18.06;68.73
70407;BME280;57821;52.202;0.154;2023-08-01T08:16:49;100097.13;;;18.13;68.75
70407;BME280;57821;52.202;0.154;2023-08-01T08:19:15;100098.72;;;18.17;68.60
70407;BME280;57821;52.202;0.154;2023-08-01T08:21:42;100095.03;;;18.21;68.57
70407;BME280;57821;52.202;0.154;2023-08-01T08:24:09;100095.53;;;18.29;68.49
70407;BME280;57821;52.202;0.154;2023-08-01T08:26:36;100109.22;;;18.35;68.05
70407;BME280;57821;52.202;0.154;2023-08-01T08:29:03;100094.19;;;18.39;67.63
70407;BME280;57821;52.202;0.154;2023-08-01T08:31:31;100100.09;;;18.44;67.63
70407;BME280;57821;52.202;0.154;2023-08-01T08:33:57;100114.75;;;18.48;67.06
70407;BME280;57821;52.202;0.154;2023-08-01T08:36:24;100090.06;;;18.52;66.47
70407;BME280;57821;52.202;0.154;2023-08-01T08:38:50;100090.66;;;18.59;66.54
70407;BME280;57821;52.202;0.154;2023-08-01T08:41:21;100097.41;;;18.64;65.08
70407;BME280;57821;52.202;0.154;2023-08-01T08:43:48;100099.72;;;18.70;65.85
70407;BME280;57821;52.202;0.154;2023-08-01T08:46:16;100108.97;;;18.79;64.79
70407;BME280;57821;52.202;0.154;2023-08-01T08:48:43;100102.63;;;18.83;64.91
70407;BME280;57821;52.202;0.154;2023-08-01T08:51:11;100108.44;;;18.90;64.58
70407;BME280;57821;52.202;0.154;2023-08-01T08:53:40;100103.81;;;18.95;64.34
70407;BME280;57821;52.202;0.154;2023-08-01T08:56:08;100096.44;;;19.03;63.98
70407;BME280;57821;52.202;0.154;2023-08-01T08:58:36;100101.84;;;19.17;64.61
70407;BME280;57821;52.202;0.154;2023-08-01T09:01:04;100112.59;;;19.29;63.82
70407;BME280;57821;52.202;0.154;2023-08-01T09:03:32;100093.66;;;19.40;62.52
70407;BME280;57821;52.202;0.154;2023-08-01T09:06:08;100093.25;;;19.49;63.50
70407;BME280;57821;52.202;0.154;2023-08-01T09:08:39;100094.53;;;19.58;62.75
70407;BME280;57821;52.202;0.154;2023-08-01T09:11:06;100099.19;;;19.70;61.48
70407;BME280;57821;52.202;0.154;2023-08-01T09:13:32;100099.56;;;19.80;61.52
70407;BME280;57821;52.202;0.154;2023-08-01T09:16:01;100100.94;;;19.87;60.68
70407;BME280;57821;52.202;0.154;2023-08-01T09:18:28;100092.81;;;19.91;60.97
70407;BME280;57821;52.202;0.154;2023-08-01T09:20:55;100105.81;;;19.94;59.46
70407;BME280;57821;52.202;0.154;2023-08-01T09:23:24;100108.44;;;19.94;59.08
70407;BME280;57821;52.202;0.154;2023-08-01T09:25:51;100099.69;;;19.94;59.77
70407;BME280;57821;52.202;0.154;2023-08-01T09:28:22;100103.84;;;19.98;59.82
70407;BME280;57821;52.202;0.154;2023-08-01T09:30:51;100106.09;;;20.05;59.38
70407;BME280;57821;52.202;0.154;2023-08-01T09:33:18;100104.06;;;20.10;60.35
70407;BME280;57821;52.202;0.154;2023-08-01T09:35:45;100107.16;;;20.19;59.41
70407;BME280;57821;52.202;0.154;2023-08-01T09:38:13;100108.59;;;20.24;59.55
70407;BME280;57821;52.202;0.154;2023-08-01T09:40:40;100123.22;;;20.30;58.77
70407;BME280;57821;52.202;0.154;2023-08-01T09:43:07;100115.47;;;20.27;58.50
70407;BME280;57821;52.202;0.154;2023-08-01T09:45:34;100122.69;;;20.23;58.56
70407;BME280;57821;52.202;0.154;2023-08-01T09:48:02;100124.78;;;20.17;57.88
70407;BME280;57821;52.202;0.154;2023-08-01T09:50:29;100119.72;;;20.14;57.82
70407;BME280;57821;52.202;0.154;2023-08-01T09:52:55;100117.31;;;20.09;57.91
70407;BME280;57821;52.202;0.154;2023-08-01T09:55:34;100122.06;;;20.02;57.72
70407;BME280;57821;52.202;0.154;2023-08-01T09:58:01;100123.22;;;19.97;57.58
70407;BME280;57821;52.202;0.154;2023-08-01T10:00:29;100120.81;;;19.92;57.87
70407;BME280;57821;52.202;0.154;2023-08-01T10:02:57;100130.66;;;19.89;57.43
70407;BME280;57821;52.202;0.154;2023-08-01T10:05:24;100135.25;;;19.85;57.66
70407;BME280;57821;52.202;0.154;2023-08-01T10:07:53;100127.41;;;19.84;57.48
70407;BME280;57821;52.202;0.154;2023-08-01T10:10:21;100126.94;;;19.93;57.36
70407;BME280;57821;52.202;0.154;2023-08-01T10:12:48;100107.13;;;20.03;57.19
70407;BME280;57821;52.202;0.154;2023-08-01T10:15:15;100117.94;;;20.14;55.70
70407;BME280;57821;52.202;0.154;2023-08-01T10:17:43;100118.19;;;20.25;56.55
70407;BME280;57821;52.202;0.154;2023-08-01T10:20:12;100116.53;;;20.40;55.88
70407;BME280;57821;52.202;0.154;2023-08-01T10:22:40;100110.28;;;20.58;55.93
70407;BME280;57821;52.202;0.154;2023-08-01T10:25:09;100118.94;;;20.76;55.08
70407;BME280;57821;52.202;0.154;2023-08-01T10:27:36;100119.91;;;20.90;55.10
70407;BME280;57821;52.202;0.154;2023-08-01T10:30:05;100127.28;;;21.00;54.90
70407;BME280;57821;52.202;0.154;2023-08-01T10:32:33;100122.66;;;21.03;54.13
70407;BME280;57821;52.202;0.154;2023-08-01T10:35:01;100132.19;;;21.06;54.24
70407;BME280;57821;52.202;0.154;2023-08-01T10:37:48;100137.47;;;21.06;53.61
70407;BME280;57821;52.202;0.154;2023-08-01T10:40:14;100128.78;;;21.04;54.25
70407;BME280;57821;52.202;0.154;2023-08-01T10:42:43;100134.31;;;20.99;53.76
70407;BME280;57821;52.202;0.154;2023-08-01T10:45:23;100136.38;;;20.94;54.57
70407;BME280;57821;52.202;0.154;2023-08-01T10:47:53;100134.84;;;20.90;54.75
70407;BME280;57821;52.202;0.154;2023-08-01T10:50:20;100138.50;;;20.87;54.50
70407;BME280;57821;52.202;0.154;2023-08-01T10:52:46;100129.16;;;20.82;54.10
70407;BME280;57821;52.202;0.154;2023-08-01T10:55:13;100131.19;;;20.77;53.52
70407;BME280;57821;52.202;0.154;2023-08-01T10:57:49;100140.22;;;20.73;53.99
70407;BME280;57821;52.202;0.154;2023-08-01T11:00:17;100124.56;;;20.70;53.91
70407;BME280;57821;52.202;0.154;2023-08-01T11:02:49;100127.97;;;20.72;53.39
70407;BME280;57821;52.202;0.154;2023-08-01T11:05:17;100133.06;;;20.75;53.42
70407;BME280;57821;52.202;0.154;2023-08-01T11:07:56;100131.97;;;20.79;52.60
70407;BME280;57821;52.202;0.154;2023-08-01T11:10:26;100128.03;;;20.86;52.97
70407;BME280;57821;52.202;0.154;2023-08-01T11:12:52;100132.03;;;20.93;52.77
70407;BME280;57821;52.202;0.154;2023-08-01T11:15:19;100135.25;;;20.98;52.36
70407;BME280;57821;52.202;0.154;2023-08-01T11:17:48;100137.41;;;21.07;52.84
70407;BME280;57821;52.202;0.154;2023-08-01T11:20:16;100145.88;;;21.12;51.86
70407;BME280;57821;52.202;0.154;2023-08-01T11:22:51;100145.88;;;21.12;52.48
70407;BME280;57821;52.202;0.154;2023-08-01T11:25:19;100150.94;;;21.17;51.71
70407;BME280;57821;52.202;0.154;2023-08-01T11:27:45;100146.50;;;21.17;51.89
70407;BME280;57821;52.202;0.154;2023-08-01T11:30:12;100146.44;;;21.19;52.65
70407;BME280;57821;52.202;0.154;2023-08-01T11:32:39;100153.28;;;21.21;52.42
70407;BME280;57821;52.202;0.154;2023-08-01T11:35:06;100151.44;;;21.23;51.59
70407;BME280;57821;52.202;0.154;2023-08-01T11:37:32;100147.16;;;21.21;51.57
70407;BME280;57821;52.202;0.154;2023-08-01T11:40:00;100155.84;;;21.23;52.46
70407;BME280;57821;52.202;0.154;2023-08-01T11:42:30;100159.91;;;21.28;51.56
70407;BME280;57821;52.202;0.154;2023-08-01T11:45:08;100145.81;;;21.29;50.73
70407;BME280;57821;52.202;0.154;2023-08-01T11:47:34;100149.03;;;21.35;50.84
70407;BME280;57821;52.202;0.154;2023-08-01T11:50:01;100157.72;;;21.37;50.89
70407;BME280;57821;52.202;0.154;2023-08-01T11:52:28;100161.34;;;21.34;50.39
70407;BME280;57821;52.202;0.154;2023-08-01T11:54:55;100171.31;;;21.29;50.21
70407;BME280;57821;52.202;0.154;2023-08-01T11:57:22;100160.28;;;21.22;50.55
70407;BME280;57821;52.202;0.154;2023-08-01T11:59:53;100166.81;;;21.15;50.62
70407;BME280;57821;52.202;0.154;2023-08-01T12:02:22;100162.72;;;21.10;50.27
70407;BME280;57821;52.202;0.154;2023-08-01T12:04:49;100162.13;;;21.05;49.88
70407;BME280;57821;52.202;0.154;2023-08-01T12:07:16;100159.75;;;21.00;50.46
70407;BME280;57821;52.202;0.154;2023-08-01T12:09:44;100159.56;;;21.03;51.04
70407;BME280;57821;52.202;0.154;2023-08-01T12:12:11;100164.34;;;21.12;51.06
70407;BME280;57821;52.202;0.154;2023-08-01T12:14:41;100168.19;;;21.22;50.83
70407;BME280;57821;52.202;0.154;2023-08-01T12:17:08;100154.66;;;21.28;50.52
70407;BME280;57821;52.202;0.154;2023-08-01T12:19:34;100149.38;;;21.28;50.02
70407;BME280;57821;52.202;0.154;2023-08-01T12:22:01;100162.81;;;21.24;50.47
70407;BME280;57821;52.202;0.154;2023-08-01T12:24:27;100159.59;;;21.19;50.56
70407;BME280;57821;52.202;0.154;2023-08-01T12:26:54;100153.78;;;21.12;51.13
70407;BME280;57821;52.202;0.154;2023-08-01T12:29:20;100166.53;;;21.04;50.83
70407;BME280;57821;52.202;0.154;2023-08-01T12:31:47;100166.81;;;21.00;50.96
70407;BME280;57821;52.202;0.154;2023-08-01T12:34:14;100155.59;;;20.96;50.74
70407;BME280;57821;52.202;0.154;2023-08-01T12:36:41;100152.97;;;20.96;50.98
70407;BME280;57821;52.202;0.154;2023-08-01T12:39:08;100161.47;;;21.01;51.30
70407;BME280;57821;52.202;0.154;2023-08-01T12:41:35;100162.81;;;21.08;50.58
70407;BME280;57821;52.202;0.154;2023-08-01T12:44:01;100164.19;;;21.15;49.97
70407;BME280;57821;52.202;0.154;2023-08-01T12:46:28;100157.47;;;21.25;49.64
70407;BME280;57821;52.202;0.154;2023-08-01T12:48:54;100152.25;;;21.40;49.36
70407;BME280;57821;52.202;0.154;2023-08-01T12:51:21;100150.41;;;21.56;49.02
70407;BME280;57821;52.202;0.154;2023-08-01T12:53:47;100160.09;;;21.71;49.75
70407;BME280;57821;52.202;0.154;2023-08-01T12:56:15;100163.88;;;21.81;48.68